Weather History for KHBI - April, 2014

Change the Weather History Date:

Saturday, April 5, 2014

  Actual Average Record
Temperature  
Mean Temperature 62 °F -  
Max Temperature 70 °F 68 °F 89 °F (1934)
Min Temperature 53 °F 45 °F 25 °F (1944)
Degree Days  
Heating Degree Days 4    
Growing Degree Days 12 (Base 50)    
Moisture  
Dew Point 38 °F    
Average Humidity 46    
Maximum Humidity 85    
Minimum Humidity 21    
Precipitation  
Precipitation 0.00 in - - ()
Sea Level Pressure  
Sea Level Pressure 29.98 in    
Wind  
Wind Speed 2 mph (NW)    
Max Wind Speed 12 mph    
Max Gust Speed 18 mph    
Visibility 10 miles    
Events      
Averages and records for this station are not official NWS values.
T = Trace of Precipitation, MM = Missing Value Source: NWS Daily Summary

Daily Weather History Graph

Daily Weather History Graph

Search for Another Location

Airport or City:

Trip Planner

Search our weather history database for the weather conditions in past years. The results will help you decide how hot, cold, wet, or windy it might be!

Date:

Astronomy

Apr. 05, 2014 Rise Set
Actual Time 7:00 AM EDT 7:44 PM EDT
Civil Twilight 6:34 AM EDT 8:10 PM EDT
Nautical Twilight 6:04 AM EDT 8:40 PM EDT
Astronomical Twilight 5:32 AM EDT 9:12 PM EDT
Moon 11:13 AM EDT (4/5) 12:46 AM EDT (4/5)
Length of Visible Light 13h 35m
Length of Day
12h 44m
Waxing Crescent, 34% of the Moon is Illuminated
Apr 5
Waxing Crescent
Apr 7
First Quarter
Apr 15
Full
Apr 22
Last Quarter
Apr 29
New

Hourly Weather History & Observations

Time (EDT) Temp. Dew Point Humidity Pressure Visibility Wind Dir Wind Speed Gust Speed Precip Events Conditions
12:15 AM 70.7 °F 48.6 °F 45% 29.84 in 10.0 mi SW 4.6 mph - N/A   Clear
12:35 AM 70.0 °F 48.7 °F 47% 29.85 in 10.0 mi Calm Calm - N/A   Clear
12:55 AM 68.9 °F 49.1 °F 49% 29.86 in 10.0 mi Calm Calm - N/A   Clear
1:15 AM 68.4 °F 49.1 °F 50% 29.87 in 10.0 mi WSW 3.5 mph - N/A   Clear
1:35 AM 67.1 °F 49.3 °F 53% 29.86 in 10.0 mi Calm Calm - N/A   Clear
1:55 AM 66.9 °F 49.3 °F 53% 29.87 in 10.0 mi Calm Calm - N/A   Clear
2:15 AM 66.0 °F 49.1 °F 54% 29.87 in 10.0 mi Calm Calm - N/A   Clear
2:35 AM 64.6 °F 49.3 °F 58% 29.87 in 10.0 mi Calm Calm - N/A   Clear
2:55 AM 60.1 °F 49.6 °F 68% 29.87 in 10.0 mi Calm Calm - N/A   Clear
3:15 AM 61.5 °F 49.6 °F 65% 29.87 in 10.0 mi Calm Calm - N/A   Clear
3:35 AM 61.2 °F 49.5 °F 65% 29.88 in 10.0 mi Calm Calm - N/A   Clear
3:55 AM 61.0 °F 49.6 °F 66% 29.87 in 10.0 mi Calm Calm - N/A   Clear
4:15 AM 60.4 °F 49.6 °F 68% 29.88 in 10.0 mi Calm Calm - N/A   Clear
4:35 AM 59.9 °F 50.0 °F 70% 29.89 in 10.0 mi Calm Calm - N/A   Clear
4:55 AM 59.9 °F 50.2 °F 70% 29.89 in 10.0 mi Calm Calm - N/A   Clear
5:15 AM 59.0 °F 50.2 °F 73% 29.89 in 10.0 mi Calm Calm - N/A   Clear
5:35 AM 57.2 °F 49.8 °F 76% 29.90 in 10.0 mi Calm Calm - N/A   Clear
5:55 AM 55.2 °F 49.8 °F 82% 29.91 in 10.0 mi Calm Calm - N/A   Clear
6:15 AM 57.6 °F 50.4 °F 77% 29.92 in 10.0 mi Calm Calm - N/A   Clear
6:35 AM 58.3 °F 50.0 °F 74% 29.93 in 10.0 mi Calm Calm - N/A   Clear
6:55 AM 57.6 °F 49.3 °F 74% 29.93 in 10.0 mi Calm Calm - N/A   Clear
7:15 AM 54.1 °F 49.5 °F 84% 29.94 in 10.0 mi Calm Calm - N/A   Clear
7:35 AM 53.6 °F 49.3 °F 85% 29.96 in 10.0 mi Calm Calm - N/A   Clear
7:55 AM 53.6 °F 49.1 °F 85% 29.97 in 10.0 mi Calm Calm - N/A   Clear
8:15 AM 55.2 °F 48.9 °F 79% 29.97 in 10.0 mi Calm Calm - N/A   Clear
8:35 AM 56.5 °F 46.2 °F 68% 29.98 in 10.0 mi Calm Calm - N/A   Clear
8:55 AM 57.2 °F 43.0 °F 59% 29.99 in 10.0 mi North 8.1 mph - N/A   Clear
9:15 AM 57.7 °F 40.1 °F 52% 29.99 in 10.0 mi North 10.4 mph 16.1 mph N/A   Clear
9:35 AM 58.5 °F 39.6 °F 49% 30.00 in 10.0 mi NNW 6.9 mph - N/A   Clear
9:55 AM 58.3 °F 39.4 °F 49% 30.00 in 10.0 mi North 3.5 mph - N/A   Clear
10:15 AM 58.3 °F 37.2 °F 45% 30.01 in 10.0 mi North 11.5 mph 18.4 mph N/A   Clear
10:35 AM 58.8 °F 36.5 °F 43% 30.01 in 10.0 mi NNW 11.5 mph - N/A   Clear
10:55 AM 58.6 °F 35.4 °F 42% 30.01 in 10.0 mi WNW 10.4 mph - N/A   Clear
11:15 AM 59.2 °F 35.1 °F 40% 30.02 in 10.0 mi NNW 5.8 mph - N/A   Clear
11:35 AM 61.0 °F 34.7 °F 37% 30.03 in 10.0 mi NNW 8.1 mph - N/A   Clear
11:55 AM 61.2 °F 34.2 °F 36% 30.02 in 10.0 mi NNW 4.6 mph - N/A   Clear
12:15 PM 61.5 °F 33.8 °F 35% 30.03 in 10.0 mi NW 8.1 mph 16.1 mph N/A   Clear
12:35 PM 61.5 °F 32.9 °F 34% 30.02 in 10.0 mi Calm Calm - N/A   Clear
12:55 PM 61.7 °F 33.1 °F 34% 30.02 in 10.0 mi NNW 8.1 mph - N/A   Clear
1:15 PM 63.3 °F 33.6 °F 33% 30.01 in 10.0 mi West 8.1 mph - N/A   Clear
1:35 PM 63.1 °F 33.4 °F 33% 30.02 in 10.0 mi Calm Calm - N/A   Clear
1:55 PM 63.5 °F 33.8 °F 33% 30.02 in 10.0 mi Calm Calm - N/A   Clear
2:15 PM 64.6 °F 33.4 °F 31% 30.01 in 10.0 mi West 5.8 mph - N/A   Clear
2:35 PM 65.1 °F 33.3 °F 31% 30.01 in 10.0 mi Calm Calm - N/A   Clear
2:55 PM 65.3 °F 32.7 °F 30% 30.00 in 10.0 mi West 5.8 mph - N/A   Clear
3:15 PM 64.8 °F 31.6 °F 29% 30.00 in 10.0 mi Calm Calm - N/A   Clear
3:35 PM 65.3 °F 31.3 °F 28% 29.99 in 10.0 mi Calm Calm - N/A   Clear
3:55 PM 65.8 °F 30.4 °F 27% 29.99 in 10.0 mi Calm Calm - N/A   Clear
4:15 PM 66.2 °F 30.6 °F 26% 29.99 in 10.0 mi Calm Calm - N/A   Clear
4:35 PM 67.1 °F 29.3 °F 24% 29.99 in 10.0 mi Calm Calm - N/A   Clear
4:55 PM 66.2 °F 28.4 °F 24% 30.00 in 10.0 mi Calm Calm - N/A   Clear
5:15 PM 66.6 °F 27.3 °F 23% 29.99 in 10.0 mi Calm Calm - N/A   Clear
5:35 PM 67.3 °F 26.4 °F 22% 30.00 in 10.0 mi Calm Calm - N/A   Clear
5:55 PM 67.1 °F 25.9 °F 21% 30.00 in 10.0 mi Calm Calm - N/A   Clear
6:15 PM 67.5 °F 26.8 °F 22% 30.00 in 10.0 mi Calm Calm - N/A   Clear
6:35 PM 67.5 °F 26.1 °F 21% 30.00 in 10.0 mi Calm Calm - N/A   Clear
6:55 PM 66.4 °F 26.4 °F 22% 30.01 in 10.0 mi Calm Calm - N/A   Clear
7:15 PM 66.0 °F 27.9 °F 24% 30.01 in 10.0 mi Calm Calm - N/A   Clear
7:35 PM 64.8 °F 27.7 °F 25% 30.02 in 10.0 mi Calm Calm - N/A   Clear
7:55 PM 62.4 °F 31.3 °F 31% 30.03 in 10.0 mi Calm Calm - N/A   Clear
8:15 PM 59.4 °F 30.0 °F 33% 30.04 in 10.0 mi Calm Calm - N/A   Clear
8:35 PM 57.6 °F 33.8 °F 41% 30.05 in 10.0 mi Calm Calm - N/A   Clear
8:55 PM 57.2 °F 31.6 °F 38% 30.06 in 10.0 mi Calm Calm - N/A   Clear
9:15 PM 55.8 °F 31.6 °F 40% 30.06 in 10.0 mi Calm Calm - N/A   Clear
9:35 PM 55.4 °F 31.6 °F 40% 30.07 in 10.0 mi Calm Calm - N/A   Clear
9:55 PM 55.0 °F 32.4 °F 42% 30.07 in 10.0 mi Calm Calm - N/A   Clear
10:15 PM 54.5 °F 31.6 °F 42% 30.09 in 10.0 mi Calm Calm - N/A   Clear
10:35 PM 56.1 °F 30.2 °F 37% 30.09 in 10.0 mi North 5.8 mph - N/A   Clear
10:55 PM 57.4 °F 29.1 °F 34% 30.09 in 10.0 mi Calm Calm - N/A   Clear
11:15 PM 56.7 °F 29.7 °F 36% 30.09 in 10.0 mi Calm Calm - N/A   Clear
11:35 PM 56.5 °F 28.6 °F 34% 30.10 in 10.0 mi NNE 5.8 mph - N/A   Clear
11:55 PM 55.9 °F 27.9 °F 34% 30.11 in 10.0 mi Calm Calm - N/A   Clear